sensor_id;sensor_type;location;lat;lon;timestamp;temperature;humidity
44559;DHT22;30270;40.238;18.256;2022-07-23T00:02:02;28.40;77.50
44559;DHT22;30270;40.238;18.256;2022-07-23T00:04:30;28.40;77.60
44559;DHT22;30270;40.238;18.256;2022-07-23T00:06:57;28.40;77.70
44559;DHT22;30270;40.238;18.256;2022-07-23T00:09:25;28.40;77.80
44559;DHT22;30270;40.238;18.256;2022-07-23T00:11:53;28.40;77.80
44559;DHT22;30270;40.238;18.256;2022-07-23T00:14:21;28.40;78.00
44559;DHT22;30270;40.238;18.256;2022-07-23T00:16:48;28.40;78.00
44559;DHT22;30270;40.238;18.256;2022-07-23T00:19:16;28.40;77.80
44559;DHT22;30270;40.238;18.256;2022-07-23T00:21:44;28.40;77.50
44559;DHT22;30270;40.238;18.256;2022-07-23T00:24:11;28.40;77.20
44559;DHT22;30270;40.238;18.256;2022-07-23T00:26:39;28.40;76.90
44559;DHT22;30270;40.238;18.256;2022-07-23T00:29:06;28.40;76.80
44559;DHT22;30270;40.238;18.256;2022-07-23T00:31:34;28.40;77.00
44559;DHT22;30270;40.238;18.256;2022-07-23T00:34:02;28.40;77.50
44559;DHT22;30270;40.238;18.256;2022-07-23T00:36:30;28.40;77.80
44559;DHT22;30270;40.238;18.256;2022-07-23T00:38:58;28.40;77.80
44559;DHT22;30270;40.238;18.256;2022-07-23T00:41:26;28.40;77.70
44559;DHT22;30270;40.238;18.256;2022-07-23T00:43:53;28.40;77.90
44559;DHT22;30270;40.238;18.256;2022-07-23T00:46:21;28.40;77.00
44559;DHT22;30270;40.238;18.256;2022-07-23T00:48:49;28.30;77.00
44559;DHT22;30270;40.238;18.256;2022-07-23T00:51:17;28.30;76.00
44559;DHT22;30270;40.238;18.256;2022-07-23T00:53:45;28.30;75.70
44559;DHT22;30270;40.238;18.256;2022-07-23T00:56:13;28.30;75.80
44559;DHT22;30270;40.238;18.256;2022-07-23T00:58:42;28.30;76.10
44559;DHT22;30270;40.238;18.256;2022-07-23T01:01:11;28.30;76.10
44559;DHT22;30270;40.238;18.256;2022-07-23T01:03:39;28.30;76.10
44559;DHT22;30270;40.238;18.256;2022-07-23T01:06:06;28.30;75.80
44559;DHT22;30270;40.238;18.256;2022-07-23T01:08:34;28.20;75.50
44559;DHT22;30270;40.238;18.256;2022-07-23T01:11:02;28.20;75.30
44559;DHT22;30270;40.238;18.256;2022-07-23T01:13:29;28.20;75.00
44559;DHT22;30270;40.238;18.256;2022-07-23T01:15:57;28.20;74.60
44559;DHT22;30270;40.238;18.256;2022-07-23T01:18:24;28.20;74.30
44559;DHT22;30270;40.238;18.256;2022-07-23T01:20:52;28.10;74.10
44559;DHT22;30270;40.238;18.256;2022-07-23T01:23:20;28.20;73.90
44559;DHT22;30270;40.238;18.256;2022-07-23T01:25:53;28.10;73.50
44559;DHT22;30270;40.238;18.256;2022-07-23T01:28:23;28.10;73.30
44559;DHT22;30270;40.238;18.256;2022-07-23T01:30:50;28.10;72.90
44559;DHT22;30270;40.238;18.256;2022-07-23T01:33:18;28.10;72.80
44559;DHT22;30270;40.238;18.256;2022-07-23T01:35:46;28.10;72.60
44559;DHT22;30270;40.238;18.256;2022-07-23T01:38:18;28.10;72.10
44559;DHT22;30270;40.238;18.256;2022-07-23T01:40:46;28.10;71.90
44559;DHT22;30270;40.238;18.256;2022-07-23T01:43:16;28.10;71.70
44559;DHT22;30270;40.238;18.256;2022-07-23T01:45:44;28.00;71.30
44559;DHT22;30270;40.238;18.256;2022-07-23T01:48:13;28.00;71.20
44559;DHT22;30270;40.238;18.256;2022-07-23T01:50:49;28.00;71.10
44559;DHT22;30270;40.238;18.256;2022-07-23T01:53:30;28.00;71.00
44559;DHT22;30270;40.238;18.256;2022-07-23T01:55:59;28.00;70.80
44559;DHT22;30270;40.238;18.256;2022-07-23T01:58:27;28.10;70.70
44559;DHT22;30270;40.238;18.256;2022-07-23T02:00:55;28.00;70.20
44559;DHT22;30270;40.238;18.256;2022-07-23T02:03:23;28.00;70.10
44559;DHT22;30270;40.238;18.256;2022-07-23T02:05:51;28.00;70.00
44559;DHT22;30270;40.238;18.256;2022-07-23T02:08:19;28.10;70.00
44559;DHT22;30270;40.238;18.256;2022-07-23T02:10:46;28.10;69.80
44559;DHT22;30270;40.238;18.256;2022-07-23T02:13:14;28.10;69.80
44559;DHT22;30270;40.238;18.256;2022-07-23T02:15:42;28.10;69.80
44559;DHT22;30270;40.238;18.256;2022-07-23T02:18:10;28.10;70.10
44559;DHT22;30270;40.238;18.256;2022-07-23T02:20:38;28.00;70.20
44559;DHT22;30270;40.238;18.256;2022-07-23T02:23:07;28.00;70.50
44559;DHT22;30270;40.238;18.256;2022-07-23T02:25:35;28.00;70.90
44559;DHT22;30270;40.238;18.256;2022-07-23T02:28:02;28.00;71.40
44559;DHT22;30270;40.238;18.256;2022-07-23T02:30:30;28.00;71.80
44559;DHT22;30270;40.238;18.256;2022-07-23T02:32:58;28.00;72.40
44559;DHT22;30270;40.238;18.256;2022-07-23T02:35:25;28.00;72.90
44559;DHT22;30270;40.238;18.256;2022-07-23T02:37:55;28.00;73.50
44559;DHT22;30270;40.238;18.256;2022-07-23T02:40:23;28.00;74.20
44559;DHT22;30270;40.238;18.256;2022-07-23T02:42:50;27.90;75.10
44559;DHT22;30270;40.238;18.256;2022-07-23T02:45:18;27.90;75.80
44559;DHT22;30270;40.238;18.256;2022-07-23T02:47:45;27.90;76.20
44559;DHT22;30270;40.238;18.256;2022-07-23T02:50:13;27.90;76.40
44559;DHT22;30270;40.238;18.256;2022-07-23T02:52:40;27.80;76.30
44559;DHT22;30270;40.238;18.256;2022-07-23T02:55:08;27.80;76.40
44559;DHT22;30270;40.238;18.256;2022-07-23T02:57:36;27.80;76.70
44559;DHT22;30270;40.238;18.256;2022-07-23T03:00:05;27.80;76.80
44559;DHT22;30270;40.238;18.256;2022-07-23T03:02:34;27.80;76.80
44559;DHT22;30270;40.238;18.256;2022-07-23T03:05:02;27.80;76.80
44559;DHT22;30270;40.238;18.256;2022-07-23T03:07:29;27.80;77.10
44559;DHT22;30270;40.238;18.256;2022-07-23T03:09:57;27.80;77.30
44559;DHT22;30270;40.238;18.256;2022-07-23T03:12:25;27.80;77.30
44559;DHT22;30270;40.238;18.256;2022-07-23T03:14:52;27.80;77.10
44559;DHT22;30270;40.238;18.256;2022-07-23T03:17:20;27.80;77.00
44559;DHT22;30270;40.238;18.256;2022-07-23T03:19:48;27.80;76.70
44559;DHT22;30270;40.238;18.256;2022-07-23T03:22:15;27.80;76.50
44559;DHT22;30270;40.238;18.256;2022-07-23T03:24:43;27.80;76.30
44559;DHT22;30270;40.238;18.256;2022-07-23T03:27:28;27.80;75.90
44559;DHT22;30270;40.238;18.256;2022-07-23T03:29:58;27.80;75.30
44559;DHT22;30270;40.238;18.256;2022-07-23T03:32:26;27.80;74.90
44559;DHT22;30270;40.238;18.256;2022-07-23T03:34:53;27.80;74.80
44559;DHT22;30270;40.238;18.256;2022-07-23T03:37:22;27.80;74.80
44559;DHT22;30270;40.238;18.256;2022-07-23T03:39:50;27.80;74.60
44559;DHT22;30270;40.238;18.256;2022-07-23T03:42:17;27.80;74.40
44559;DHT22;30270;40.238;18.256;2022-07-23T03:44:46;27.70;74.30
44559;DHT22;30270;40.238;18.256;2022-07-23T03:47:13;27.70;73.90
44559;DHT22;30270;40.238;18.256;2022-07-23T03:49:43;27.70;73.50
44559;DHT22;30270;40.238;18.256;2022-07-23T03:52:10;27.70;73.10
44559;DHT22;30270;40.238;18.256;2022-07-23T03:54:38;27.80;73.20
44559;DHT22;30270;40.238;18.256;2022-07-23T03:57:07;27.80;73.20
44559;DHT22;30270;40.238;18.256;2022-07-23T03:59:35;27.80;73.60
44559;DHT22;30270;40.238;18.256;2022-07-23T04:02:02;27.80;73.70
44559;DHT22;30270;40.238;18.256;2022-07-23T04:04:30;27.90;73.90
44559;DHT22;30270;40.238;18.256;2022-07-23T04:06:58;27.90;74.10
44559;DHT22;30270;40.238;18.256;2022-07-23T04:09:26;28.00;74.80
44559;DHT22;30270;40.238;18.256;2022-07-23T04:11:54;28.00;74.40
44559;DHT22;30270;40.238;18.256;2022-07-23T04:14:21;28.10;74.70
44559;DHT22;30270;40.238;18.256;2022-07-23T04:16:49;28.10;74.90
44559;DHT22;30270;40.238;18.256;2022-07-23T04:19:16;28.20;75.10
44559;DHT22;30270;40.238;18.256;2022-07-23T04:21:56;28.30;75.30
44559;DHT22;30270;40.238;18.256;2022-07-23T04:24:24;28.30;75.50
44559;DHT22;30270;40.238;18.256;2022-07-23T04:26:52;28.40;75.70
44559;DHT22;30270;40.238;18.256;2022-07-23T04:29:20;28.50;75.70
44559;DHT22;30270;40.238;18.256;2022-07-23T04:31:48;28.50;75.50
44559;DHT22;30270;40.238;18.256;2022-07-23T04:34:17;28.60;75.30
44559;DHT22;30270;40.238;18.256;2022-07-23T04:36:45;28.70;74.90
44559;DHT22;30270;40.238;18.256;2022-07-23T04:39:13;28.80;74.60
44559;DHT22;30270;40.238;18.256;2022-07-23T04:41:41;29.00;74.50
44559;DHT22;30270;40.238;18.256;2022-07-23T04:44:09;29.00;74.00
44559;DHT22;30270;40.238;18.256;2022-07-23T04:46:37;29.10;73.60
44559;DHT22;30270;40.238;18.256;2022-07-23T04:49:08;29.20;73.30
44559;DHT22;30270;40.238;18.256;2022-07-23T04:51:36;29.40;72.90
44559;DHT22;30270;40.238;18.256;2022-07-23T04:54:03;29.50;72.70
44559;DHT22;30270;40.238;18.256;2022-07-23T04:56:31;29.60;72.10
44559;DHT22;30270;40.238;18.256;2022-07-23T04:59:00;29.70;71.80
44559;DHT22;30270;40.238;18.256;2022-07-23T05:01:28;29.90;71.40
44559;DHT22;30270;40.238;18.256;2022-07-23T05:03:55;30.00;71.30
44559;DHT22;30270;40.238;18.256;2022-07-23T05:06:27;30.10;71.00
44559;DHT22;30270;40.238;18.256;2022-07-23T05:08:55;30.30;70.40
44559;DHT22;30270;40.238;18.256;2022-07-23T05:11:23;30.40;69.90
44559;DHT22;30270;40.238;18.256;2022-07-23T05:13:53;30.60;69.80
44559;DHT22;30270;40.238;18.256;2022-07-23T05:16:21;30.70;69.50
44559;DHT22;30270;40.238;18.256;2022-07-23T05:18:50;30.80;68.90
44559;DHT22;30270;40.238;18.256;2022-07-23T05:21:18;30.90;68.30
44559;DHT22;30270;40.238;18.256;2022-07-23T05:23:46;31.10;67.20
44559;DHT22;30270;40.238;18.256;2022-07-23T05:26:13;31.20;67.20
44559;DHT22;30270;40.238;18.256;2022-07-23T05:28:41;31.40;66.90
44559;DHT22;30270;40.238;18.256;2022-07-23T05:31:11;31.50;66.50
44559;DHT22;30270;40.238;18.256;2022-07-23T05:33:39;31.60;66.70
44559;DHT22;30270;40.238;18.256;2022-07-23T05:36:07;31.80;66.70
44559;DHT22;30270;40.238;18.256;2022-07-23T05:38:43;31.90;66.10
44559;DHT22;30270;40.238;18.256;2022-07-23T05:41:11;32.10;65.90
44559;DHT22;30270;40.238;18.256;2022-07-23T05:43:38;32.10;65.50
44559;DHT22;30270;40.238;18.256;2022-07-23T05:46:10;32.30;65.10
44559;DHT22;30270;40.238;18.256;2022-07-23T05:48:41;32.40;64.50
44559;DHT22;30270;40.238;18.256;2022-07-23T05:51:27;32.50;64.10
44559;DHT22;30270;40.238;18.256;2022-07-23T05:53:55;32.60;63.60
44559;DHT22;30270;40.238;18.256;2022-07-23T05:56:27;32.70;63.60
44559;DHT22;30270;40.238;18.256;2022-07-23T05:58:54;32.90;63.30
44559;DHT22;30270;40.238;18.256;2022-07-23T06:01:22;33.00;63.50
44559;DHT22;30270;40.238;18.256;2022-07-23T06:04:16;33.10;63.00
44559;DHT22;30270;40.238;18.256;2022-07-23T06:06:54;33.30;62.70
44559;DHT22;30270;40.238;18.256;2022-07-23T06:09:22;33.50;62.60
44559;DHT22;30270;40.238;18.256;2022-07-23T06:11:50;33.60;61.90
44559;DHT22;30270;40.238;18.256;2022-07-23T06:14:18;33.70;61.30
44559;DHT22;30270;40.238;18.256;2022-07-23T06:16:55;33.80;61.40
44559;DHT22;30270;40.238;18.256;2022-07-23T06:19:23;33.90;61.40
44559;DHT22;30270;40.238;18.256;2022-07-23T06:21:51;34.00;61.30
44559;DHT22;30270;40.238;18.256;2022-07-23T06:24:19;34.10;61.40
44559;DHT22;30270;40.238;18.256;2022-07-23T06:26:48;34.10;61.60
44559;DHT22;30270;40.238;18.256;2022-07-23T06:29:16;34.20;62.00
44559;DHT22;30270;40.238;18.256;2022-07-23T06:31:43;34.20;62.10
44559;DHT22;30270;40.238;18.256;2022-07-23T06:34:13;34.20;61.60
44559;DHT22;30270;40.238;18.256;2022-07-23T06:36:41;34.30;61.10
44559;DHT22;30270;40.238;18.256;2022-07-23T06:39:08;34.30;61.00
44559;DHT22;30270;40.238;18.256;2022-07-23T06:41:38;34.40;61.40
44559;DHT22;30270;40.238;18.256;2022-07-23T06:44:05;34.40;61.40
44559;DHT22;30270;40.238;18.256;2022-07-23T06:46:35;34.50;61.40
44559;DHT22;30270;40.238;18.256;2022-07-23T06:49:03;34.50;61.40
44559;DHT22;30270;40.238;18.256;2022-07-23T06:51:31;34.50;61.10
44559;DHT22;30270;40.238;18.256;2022-07-23T06:54:01;34.40;59.90
44559;DHT22;30270;40.238;18.256;2022-07-23T06:56:28;34.50;59.90
44559;DHT22;30270;40.238;18.256;2022-07-23T06:58:56;34.60;60.00
44559;DHT22;30270;40.238;18.256;2022-07-23T07:01:26;34.70;59.50
44559;DHT22;30270;40.238;18.256;2022-07-23T07:03:54;34.90;59.00
44559;DHT22;30270;40.238;18.256;2022-07-23T07:06:21;34.90;58.50
44559;DHT22;30270;40.238;18.256;2022-07-23T07:08:49;35.00;58.40
44559;DHT22;30270;40.238;18.256;2022-07-23T07:11:17;35.20;58.70
44559;DHT22;30270;40.238;18.256;2022-07-23T07:13:44;35.30;58.40
44559;DHT22;30270;40.238;18.256;2022-07-23T07:16:12;35.50;57.90
44559;DHT22;30270;40.238;18.256;2022-07-23T07:18:39;35.60;57.60
44559;DHT22;30270;40.238;18.256;2022-07-23T07:21:07;35.70;57.70
44559;DHT22;30270;40.238;18.256;2022-07-23T07:23:34;35.80;57.70
44559;DHT22;30270;40.238;18.256;2022-07-23T07:26:02;35.90;57.10
44559;DHT22;30270;40.238;18.256;2022-07-23T07:28:30;35.90;57.80
44559;DHT22;30270;40.238;18.256;2022-07-23T07:30:57;36.00;57.90
44559;DHT22;30270;40.238;18.256;2022-07-23T07:33:25;36.00;57.60
44559;DHT22;30270;40.238;18.256;2022-07-23T07:35:53;36.10;58.10
44559;DHT22;30270;40.238;18.256;2022-07-23T07:38:21;36.20;57.00
44559;DHT22;30270;40.238;18.256;2022-07-23T07:40:49;36.20;56.80
44559;DHT22;30270;40.238;18.256;2022-07-23T07:43:16;36.30;57.40
44559;DHT22;30270;40.238;18.256;2022-07-23T07:45:44;36.40;56.80
44559;DHT22;30270;40.238;18.256;2022-07-23T07:48:12;36.50;56.60
44559;DHT22;30270;40.238;18.256;2022-07-23T07:50:39;36.50;56.20
44559;DHT22;30270;40.238;18.256;2022-07-23T07:53:07;36.60;56.40
44559;DHT22;30270;40.238;18.256;2022-07-23T07:55:36;36.60;55.60
44559;DHT22;30270;40.238;18.256;2022-07-23T07:58:03;36.60;56.10
44559;DHT22;30270;40.238;18.256;2022-07-23T08:00:31;36.60;56.20
44559;DHT22;30270;40.238;18.256;2022-07-23T08:03:00;36.70;56.00
44559;DHT22;30270;40.238;18.256;2022-07-23T08:05:29;36.60;55.90
44559;DHT22;30270;40.238;18.256;2022-07-23T08:07:58;36.80;55.80
44559;DHT22;30270;40.238;18.256;2022-07-23T08:10:27;36.80;55.50
44559;DHT22;30270;40.238;18.256;2022-07-23T08:12:56;36.80;55.50
44559;DHT22;30270;40.238;18.256;2022-07-23T08:15:25;37.00;55.30
44559;DHT22;30270;40.238;18.256;2022-07-23T08:17:54;37.00;55.10
44559;DHT22;30270;40.238;18.256;2022-07-23T08:20:23;37.10;55.30
44559;DHT22;30270;40.238;18.256;2022-07-23T08:23:05;37.10;54.70
44559;DHT22;30270;40.238;18.256;2022-07-23T08:25:42;37.00;54.70
44559;DHT22;30270;40.238;18.256;2022-07-23T08:28:11;37.10;55.40
44559;DHT22;30270;40.238;18.256;2022-07-23T08:30:41;37.10;55.10
44559;DHT22;30270;40.238;18.256;2022-07-23T08:33:11;37.10;54.90
44559;DHT22;30270;40.238;18.256;2022-07-23T08:35:42;37.10;54.50
44559;DHT22;30270;40.238;18.256;2022-07-23T08:38:12;37.20;54.90
44559;DHT22;30270;40.238;18.256;2022-07-23T08:40:42;37.30;54.90
44559;DHT22;30270;40.238;18.256;2022-07-23T08:43:20;37.30;54.40
44559;DHT22;30270;40.238;18.256;2022-07-23T08:45:54;37.10;53.80
44559;DHT22;30270;40.238;18.256;2022-07-23T08:48:36;37.10;54.70
44559;DHT22;30270;40.238;18.256;2022-07-23T08:51:05;37.20;54.50
44559;DHT22;30270;40.238;18.256;2022-07-23T08:53:34;37.40;54.60
44559;DHT22;30270;40.238;18.256;2022-07-23T08:56:06;37.30;54.60
44559;DHT22;30270;40.238;18.256;2022-07-23T08:58:34;37.40;54.70
44559;DHT22;30270;40.238;18.256;2022-07-23T09:01:03;37.50;54.60
44559;DHT22;30270;40.238;18.256;2022-07-23T09:03:34;37.50;54.80
44559;DHT22;30270;40.238;18.256;2022-07-23T09:06:03;37.50;54.90
44559;DHT22;30270;40.238;18.256;2022-07-23T09:08:43;37.50;54.60
44559;DHT22;30270;40.238;18.256;2022-07-23T09:11:15;37.50;54.10
44559;DHT22;30270;40.238;18.256;2022-07-23T09:13:49;37.60;54.20
44559;DHT22;30270;40.238;18.256;2022-07-23T09:16:25;37.50;54.90
44559;DHT22;30270;40.238;18.256;2022-07-23T09:19:06;37.50;54.60
44559;DHT22;30270;40.238;18.256;2022-07-23T09:21:36;37.50;54.60
44559;DHT22;30270;40.238;18.256;2022-07-23T09:24:14;37.50;54.70
44559;DHT22;30270;40.238;18.256;2022-07-23T09:26:47;37.50;54.60
44559;DHT22;30270;40.238;18.256;2022-07-23T09:31:59;37.60;54.70
44559;DHT22;30270;40.238;18.256;2022-07-23T09:34:29;37.60;54.70
44559;DHT22;30270;40.238;18.256;2022-07-23T09:37:11;37.50;54.10
44559;DHT22;30270;40.238;18.256;2022-07-23T09:39:42;37.50;54.60
44559;DHT22;30270;40.238;18.256;2022-07-23T09:44:48;37.10;54.50
44559;DHT22;30270;40.238;18.256;2022-07-23T09:47:17;37.10;54.70
44559;DHT22;30270;40.238;18.256;2022-07-23T09:50:08;37.20;54.90
44559;DHT22;30270;40.238;18.256;2022-07-23T09:52:48;37.20;54.90
44559;DHT22;30270;40.238;18.256;2022-07-23T09:55:18;37.30;54.90
44559;DHT22;30270;40.238;18.256;2022-07-23T09:57:47;37.30;55.10
44559;DHT22;30270;40.238;18.256;2022-07-23T10:00:20;37.10;54.60
44559;DHT22;30270;40.238;18.256;2022-07-23T10:02:49;37.00;55.10
44559;DHT22;30270;40.238;18.256;2022-07-23T10:05:37;37.00;55.20
44559;DHT22;30270;40.238;18.256;2022-07-23T10:08:34;36.90;55.00
44559;DHT22;30270;40.238;18.256;2022-07-23T10:11:33;36.90;55.00
44559;DHT22;30270;40.238;18.256;2022-07-23T10:14:20;36.70;54.70
44559;DHT22;30270;40.238;18.256;2022-07-23T10:16:54;36.60;54.40
44559;DHT22;30270;40.238;18.256;2022-07-23T10:19:23;36.60;55.00
44559;DHT22;30270;40.238;18.256;2022-07-23T10:21:54;36.70;54.60
44559;DHT22;30270;40.238;18.256;2022-07-23T10:28:04;36.90;53.70
44559;DHT22;30270;40.238;18.256;2022-07-23T10:33:54;36.90;54.10
44559;DHT22;30270;40.238;18.256;2022-07-23T10:39:36;37.00;53.90
44559;DHT22;30270;40.238;18.256;2022-07-23T10:42:16;37.00;53.90
44559;DHT22;30270;40.238;18.256;2022-07-23T10:44:46;37.10;54.20
44559;DHT22;30270;40.238;18.256;2022-07-23T10:47:44;37.00;54.10
44559;DHT22;30270;40.238;18.256;2022-07-23T10:50:23;37.00;53.80
44559;DHT22;30270;40.238;18.256;2022-07-23T10:53:21;37.00;54.00
44559;DHT22;30270;40.238;18.256;2022-07-23T10:55:52;37.10;54.60
44559;DHT22;30270;40.238;18.256;2022-07-23T10:58:22;37.10;54.60
44559;DHT22;30270;40.238;18.256;2022-07-23T11:00:51;37.10;54.20
44559;DHT22;30270;40.238;18.256;2022-07-23T11:03:36;37.00;54.20
44559;DHT22;30270;40.238;18.256;2022-07-23T11:06:05;37.00;54.40
44559;DHT22;30270;40.238;18.256;2022-07-23T11:08:33;37.00;54.50
44559;DHT22;30270;40.238;18.256;2022-07-23T11:13:35;36.90;54.50
44559;DHT22;30270;40.238;18.256;2022-07-23T11:16:22;37.00;54.70
44559;DHT22;30270;40.238;18.256;2022-07-23T11:18:56;36.90;54.40
44559;DHT22;30270;40.238;18.256;2022-07-23T11:26:47;36.90;54.30
44559;DHT22;30270;40.238;18.256;2022-07-23T11:32:22;37.00;54.10
44559;DHT22;30270;40.238;18.256;2022-07-23T11:34:51;37.00;54.20
44559;DHT22;30270;40.238;18.256;2022-07-23T11:39:57;37.10;54.10
44559;DHT22;30270;40.238;18.256;2022-07-23T11:42:25;37.10;53.90
44559;DHT22;30270;40.238;18.256;2022-07-23T11:44:57;37.00;53.60
44559;DHT22;30270;40.238;18.256;2022-07-23T11:47:26;37.00;53.60
44559;DHT22;30270;40.238;18.256;2022-07-23T11:49:57;36.80;53.50
44559;DHT22;30270;40.238;18.256;2022-07-23T11:52:26;36.80;53.70
44559;DHT22;30270;40.238;18.256;2022-07-23T11:57:38;36.80;53.20
44559;DHT22;30270;40.238;18.256;2022-07-23T12:00:11;36.90;53.80
44559;DHT22;30270;40.238;18.256;2022-07-23T12:03:00;37.00;53.80
44559;DHT22;30270;40.238;18.256;2022-07-23T12:05:34;37.00;53.30
44559;DHT22;30270;40.238;18.256;2022-07-23T12:08:05;37.00;53.70
44559;DHT22;30270;40.238;18.256;2022-07-23T12:10:36;37.00;52.90
44559;DHT22;30270;40.238;18.256;2022-07-23T12:13:06;37.00;53.60
44559;DHT22;30270;40.238;18.256;2022-07-23T12:15:38;37.00;53.40
44559;DHT22;30270;40.238;18.256;2022-07-23T12:18:10;37.00;52.90
44559;DHT22;30270;40.238;18.256;2022-07-23T12:20:41;36.90;53.00
44559;DHT22;30270;40.238;18.256;2022-07-23T12:23:12;36.90;52.80
44559;DHT22;30270;40.238;18.256;2022-07-23T12:25:42;36.80;52.90
44559;DHT22;30270;40.238;18.256;2022-07-23T12:28:20;36.70;52.70
44559;DHT22;30270;40.238;18.256;2022-07-23T12:30:52;36.70;52.70
44559;DHT22;30270;40.238;18.256;2022-07-23T12:33:41;36.70;53.30
44559;DHT22;30270;40.238;18.256;2022-07-23T12:36:09;36.70;53.60
44559;DHT22;30270;40.238;18.256;2022-07-23T12:38:44;36.70;54.10
44559;DHT22;30270;40.238;18.256;2022-07-23T12:41:14;36.60;52.70
44559;DHT22;30270;40.238;18.256;2022-07-23T12:43:43;36.60;52.90
44559;DHT22;30270;40.238;18.256;2022-07-23T12:46:21;36.50;53.30
44559;DHT22;30270;40.238;18.256;2022-07-23T12:48:53;36.40;53.10
44559;DHT22;30270;40.238;18.256;2022-07-23T12:51:31;36.40;53.00
44559;DHT22;30270;40.238;18.256;2022-07-23T12:54:05;36.40;53.10
44559;DHT22;30270;40.238;18.256;2022-07-23T12:56:35;36.40;54.30
44559;DHT22;30270;40.238;18.256;2022-07-23T13:01:33;36.50;54.10
44559;DHT22;30270;40.238;18.256;2022-07-23T13:04:03;36.50;55.60
44559;DHT22;30270;40.238;18.256;2022-07-23T13:06:38;36.50;55.70
44559;DHT22;30270;40.238;18.256;2022-07-23T13:09:08;36.50;55.00
44559;DHT22;30270;40.238;18.256;2022-07-23T13:11:36;36.40;55.00
44559;DHT22;30270;40.238;18.256;2022-07-23T13:14:06;36.30;56.70
44559;DHT22;30270;40.238;18.256;2022-07-23T13:16:34;36.30;56.30
44559;DHT22;30270;40.238;18.256;2022-07-23T13:19:02;36.30;56.20
44559;DHT22;30270;40.238;18.256;2022-07-23T13:21:30;36.20;55.00
44559;DHT22;30270;40.238;18.256;2022-07-23T13:23:58;36.10;55.00
44559;DHT22;30270;40.238;18.256;2022-07-23T13:26:26;36.00;55.20
44559;DHT22;30270;40.238;18.256;2022-07-23T13:28:54;36.00;55.20
44559;DHT22;30270;40.238;18.256;2022-07-23T13:31:22;36.00;55.20
44559;DHT22;30270;40.238;18.256;2022-07-23T13:33:50;36.00;55.10
44559;DHT22;30270;40.238;18.256;2022-07-23T13:36:17;36.00;55.00
44559;DHT22;30270;40.238;18.256;2022-07-23T13:38:45;35.90;55.00
44559;DHT22;30270;40.238;18.256;2022-07-23T13:41:13;35.90;55.40
44559;DHT22;30270;40.238;18.256;2022-07-23T13:43:41;35.90;55.20
44559;DHT22;30270;40.238;18.256;2022-07-23T13:46:08;35.90;55.50
44559;DHT22;30270;40.238;18.256;2022-07-23T13:48:36;35.90;55.10
44559;DHT22;30270;40.238;18.256;2022-07-23T13:51:04;35.90;55.60
44559;DHT22;30270;40.238;18.256;2022-07-23T13:53:32;35.90;55.70
44559;DHT22;30270;40.238;18.256;2022-07-23T13:55:59;35.90;55.30
44559;DHT22;30270;40.238;18.256;2022-07-23T13:58:27;35.90;55.70
44559;DHT22;30270;40.238;18.256;2022-07-23T14:00:55;35.90;56.20
44559;DHT22;30270;40.238;18.256;2022-07-23T14:03:23;35.90;56.00
44559;DHT22;30270;40.238;18.256;2022-07-23T14:05:51;35.80;55.80
44559;DHT22;30270;40.238;18.256;2022-07-23T14:08:19;35.70;56.00
44559;DHT22;30270;40.238;18.256;2022-07-23T14:10:47;35.60;56.20
44559;DHT22;30270;40.238;18.256;2022-07-23T14:13:15;35.60;56.90
44559;DHT22;30270;40.238;18.256;2022-07-23T14:15:43;35.50;56.50
44559;DHT22;30270;40.238;18.256;2022-07-23T14:18:10;35.40;57.30
44559;DHT22;30270;40.238;18.256;2022-07-23T14:20:38;35.40;57.20
44559;DHT22;30270;40.238;18.256;2022-07-23T14:23:05;35.30;57.10
44559;DHT22;30270;40.238;18.256;2022-07-23T14:25:33;35.30;57.70
44559;DHT22;30270;40.238;18.256;2022-07-23T14:28:01;35.30;57.40
44559;DHT22;30270;40.238;18.256;2022-07-23T14:30:28;35.20;57.00
44559;DHT22;30270;40.238;18.256;2022-07-23T14:33:00;35.20;57.20
44559;DHT22;30270;40.238;18.256;2022-07-23T14:35:28;35.30;57.20
44559;DHT22;30270;40.238;18.256;2022-07-23T14:37:56;35.30;57.20
44559;DHT22;30270;40.238;18.256;2022-07-23T14:40:24;35.30;56.70
44559;DHT22;30270;40.238;18.256;2022-07-23T14:42:52;35.30;56.80
44559;DHT22;30270;40.238;18.256;2022-07-23T14:45:20;35.20;56.40
44559;DHT22;30270;40.238;18.256;2022-07-23T14:47:48;35.20;57.20
44559;DHT22;30270;40.238;18.256;2022-07-23T14:50:16;35.20;56.60
44559;DHT22;30270;40.238;18.256;2022-07-23T14:52:43;35.20;56.80
44559;DHT22;30270;40.238;18.256;2022-07-23T14:55:11;35.20;57.00
44559;DHT22;30270;40.238;18.256;2022-07-23T14:57:39;35.20;57.10
44559;DHT22;30270;40.238;18.256;2022-07-23T15:00:08;35.20;56.80
44559;DHT22;30270;40.238;18.256;2022-07-23T15:02:36;35.20;56.00
44559;DHT22;30270;40.238;18.256;2022-07-23T15:05:04;35.10;56.50
44559;DHT22;30270;40.238;18.256;2022-07-23T15:07:32;35.20;57.30
44559;DHT22;30270;40.238;18.256;2022-07-23T15:10:02;35.10;57.70
44559;DHT22;30270;40.238;18.256;2022-07-23T15:12:30;35.10;58.00
44559;DHT22;30270;40.238;18.256;2022-07-23T15:15:00;35.20;58.30
44559;DHT22;30270;40.238;18.256;2022-07-23T15:17:28;35.20;57.50
44559;DHT22;30270;40.238;18.256;2022-07-23T15:19:56;35.20;56.70
44559;DHT22;30270;40.238;18.256;2022-07-23T15:22:23;35.20;57.00
44559;DHT22;30270;40.238;18.256;2022-07-23T15:24:51;35.10;57.20
44559;DHT22;30270;40.238;18.256;2022-07-23T15:27:19;35.10;57.30
44559;DHT22;30270;40.238;18.256;2022-07-23T15:29:47;35.10;57.20
44559;DHT22;30270;40.238;18.256;2022-07-23T15:32:14;35.10;56.70
44559;DHT22;30270;40.238;18.256;2022-07-23T15:34:42;35.10;56.70
44559;DHT22;30270;40.238;18.256;2022-07-23T15:37:10;35.00;56.20
44559;DHT22;30270;40.238;18.256;2022-07-23T15:39:38;35.10;56.40
44559;DHT22;30270;40.238;18.256;2022-07-23T15:42:06;35.10;57.30
44559;DHT22;30270;40.238;18.256;2022-07-23T15:44:34;35.10;57.70
44559;DHT22;30270;40.238;18.256;2022-07-23T15:47:02;35.10;57.60
44559;DHT22;30270;40.238;18.256;2022-07-23T15:49:30;35.10;57.70
44559;DHT22;30270;40.238;18.256;2022-07-23T15:51:57;35.10;57.60
44559;DHT22;30270;40.238;18.256;2022-07-23T15:54:25;35.10;57.40
44559;DHT22;30270;40.238;18.256;2022-07-23T15:56:53;35.10;57.30
44559;DHT22;30270;40.238;18.256;2022-07-23T15:59:22;35.10;56.90
44559;DHT22;30270;40.238;18.256;2022-07-23T16:01:51;35.10;56.90
44559;DHT22;30270;40.238;18.256;2022-07-23T16:04:20;35.00;56.80
44559;DHT22;30270;40.238;18.256;2022-07-23T16:06:48;35.00;57.00